sensor_id;sensor_type;location;lat;lon;timestamp;pressure;altitude;pressure_sealevel;temperature;humidity
75513;BME280;64090;49.770;18.760;2023-05-08T00:18:16;98456.45;;;4.79;84.02
75513;BME280;64090;49.770;18.760;2023-05-08T00:36:55;98460.12;;;4.70;83.98
75513;BME280;64090;49.770;18.760;2023-05-08T06:52:01;98632.90;;;9.35;65.04
75513;BME280;64090;49.770;18.760;2023-05-08T07:00:21;98641.77;;;10.39;62.59
75513;BME280;64090;49.770;18.760;2023-05-08T07:08:07;98641.90;;;10.09;60.85
75513;BME280;64090;49.770;18.760;2023-05-08T07:12:43;98649.42;;;10.33;60.05
75513;BME280;64090;49.770;18.760;2023-05-08T07:16:46;98641.23;;;10.30;60.09
75513;BME280;64090;49.770;18.760;2023-05-08T07:20:42;98638.23;;;10.73;59.66
75513;BME280;64090;49.770;18.760;2023-05-08T07:24:21;98650.07;;;10.87;58.93
75513;BME280;64090;49.770;18.760;2023-05-08T07:27:58;98652.45;;;10.82;59.00
75513;BME280;64090;49.770;18.760;2023-05-08T07:32:11;98645.36;;;10.52;58.49
75513;BME280;64090;49.770;18.760;2023-05-08T07:40:22;98660.70;;;9.92;60.21
75513;BME280;64090;49.770;18.760;2023-05-08T07:57:32;98661.38;;;9.80;59.80
75513;BME280;64090;49.770;18.760;2023-05-08T08:01:26;98674.84;;;10.11;59.26
75513;BME280;64090;49.770;18.760;2023-05-08T08:14:17;98683.77;;;10.01;58.95
75513;BME280;64090;49.770;18.760;2023-05-08T08:18:27;98688.86;;;9.95;57.98
75513;BME280;64090;49.770;18.760;2023-05-08T08:22:31;98682.92;;;9.94;59.38
75513;BME280;64090;49.770;18.760;2023-05-08T08:26:45;98687.80;;;10.16;58.22
75513;BME280;64090;49.770;18.760;2023-05-08T08:43:08;98684.83;;;9.93;58.07
75513;BME280;64090;49.770;18.760;2023-05-08T09:00:02;98696.35;;;10.01;57.05
75513;BME280;64090;49.770;18.760;2023-05-08T09:56:53;98699.88;;;10.25;55.86
75513;BME280;64090;49.770;18.760;2023-05-08T10:01:07;98708.59;;;10.40;54.59
75513;BME280;64090;49.770;18.760;2023-05-08T10:31:49;98697.61;;;10.11;53.05
75513;BME280;64090;49.770;18.760;2023-05-08T10:35:47;98693.80;;;10.38;52.72
75513;BME280;64090;49.770;18.760;2023-05-08T11:01:42;98695.79;;;10.96;52.63
75513;BME280;64090;49.770;18.760;2023-05-08T11:14:11;98686.20;;;11.48;51.11
75513;BME280;64090;49.770;18.760;2023-05-08T11:18:09;98683.28;;;11.47;50.43
75513;BME280;64090;49.770;18.760;2023-05-08T11:22:22;98678.25;;;11.47;50.86
75513;BME280;64090;49.770;18.760;2023-05-08T11:31:00;98662.83;;;11.77;51.80
75513;BME280;64090;49.770;18.760;2023-05-08T11:43:17;98663.06;;;11.99;50.51
75513;BME280;64090;49.770;18.760;2023-05-08T11:46:49;98669.50;;;12.47;49.20
75513;BME280;64090;49.770;18.760;2023-05-08T11:50:15;98665.98;;;12.42;49.06
75513;BME280;64090;49.770;18.760;2023-05-08T11:53:42;98665.23;;;12.31;48.64
75513;BME280;64090;49.770;18.760;2023-05-08T11:57:11;98665.48;;;12.11;49.41
75513;BME280;64090;49.770;18.760;2023-05-08T12:00:49;98662.17;;;12.00;49.63
75513;BME280;64090;49.770;18.760;2023-05-08T12:04:41;98664.21;;;11.68;49.98
75513;BME280;64090;49.770;18.760;2023-05-08T12:08:37;98673.65;;;11.60;50.11
75513;BME280;64090;49.770;18.760;2023-05-08T12:12:58;98657.14;;;11.66;49.82
75513;BME280;64090;49.770;18.760;2023-05-08T12:17:17;98662.28;;;11.82;49.84
75513;BME280;64090;49.770;18.760;2023-05-08T12:21:11;98655.70;;;12.05;50.54
75513;BME280;64090;49.770;18.760;2023-05-08T12:24:47;98659.39;;;12.25;49.71
75513;BME280;64090;49.770;18.760;2023-05-08T12:28:14;98656.86;;;12.47;49.65
75513;BME280;64090;49.770;18.760;2023-05-08T12:31:43;98662.63;;;12.45;49.79
75513;BME280;64090;49.770;18.760;2023-05-08T12:35:22;98660.24;;;12.52;49.33
75513;BME280;64090;49.770;18.760;2023-05-08T12:39:07;98664.20;;;12.65;48.50
75513;BME280;64090;49.770;18.760;2023-05-08T12:42:44;98662.43;;;12.65;48.92
75513;BME280;64090;49.770;18.760;2023-05-08T12:46:12;98656.58;;;12.54;48.65
75513;BME280;64090;49.770;18.760;2023-05-08T12:49:50;98655.22;;;12.54;48.72
75513;BME280;64090;49.770;18.760;2023-05-08T12:53:22;98660.67;;;12.31;48.80
75513;BME280;64090;49.770;18.760;2023-05-08T12:56:48;98655.88;;;12.21;49.27
75513;BME280;64090;49.770;18.760;2023-05-08T13:00:33;98664.84;;;12.29;49.39
75513;BME280;64090;49.770;18.760;2023-05-08T13:04:06;98662.65;;;12.36;48.73
75513;BME280;64090;49.770;18.760;2023-05-08T13:09:05;98659.27;;;12.30;49.06
75513;BME280;64090;49.770;18.760;2023-05-08T13:12:47;98655.10;;;12.06;49.73
75513;BME280;64090;49.770;18.760;2023-05-08T13:16:14;98668.15;;;12.17;49.70
75513;BME280;64090;49.770;18.760;2023-05-08T13:19:59;98660.54;;;12.18;48.56
75513;BME280;64090;49.770;18.760;2023-05-08T13:23:57;98658.67;;;12.01;48.86
75513;BME280;64090;49.770;18.760;2023-05-08T13:27:31;98652.47;;;11.82;49.20
75513;BME280;64090;49.770;18.760;2023-05-08T13:31:04;98654.50;;;11.67;49.03
75513;BME280;64090;49.770;18.760;2023-05-08T13:34:50;98653.58;;;11.53;49.96
75513;BME280;64090;49.770;18.760;2023-05-08T13:38:34;98647.53;;;11.26;49.66
75513;BME280;64090;49.770;18.760;2023-05-08T13:42:42;98650.52;;;11.67;48.53
75513;BME280;64090;49.770;18.760;2023-05-08T13:46:25;98642.55;;;12.02;48.14
75513;BME280;64090;49.770;18.760;2023-05-08T13:50:28;98652.11;;;12.23;47.09
75513;BME280;64090;49.770;18.760;2023-05-08T13:54:05;98654.44;;;12.35;46.83
75513;BME280;64090;49.770;18.760;2023-05-08T13:57:34;98654.10;;;12.53;46.88
75513;BME280;64090;49.770;18.760;2023-05-08T14:00:56;98647.95;;;12.51;46.58
75513;BME280;64090;49.770;18.760;2023-05-08T14:04:44;98647.38;;;12.47;45.96
75513;BME280;64090;49.770;18.760;2023-05-08T14:08:22;98649.17;;;12.72;45.09
75513;BME280;64090;49.770;18.760;2023-05-08T14:12:11;98640.23;;;12.98;44.23
75513;BME280;64090;49.770;18.760;2023-05-08T14:15:37;98630.88;;;13.44;46.22
75513;BME280;64090;49.770;18.760;2023-05-08T14:19:32;98646.63;;;13.90;44.47
75513;BME280;64090;49.770;18.760;2023-05-08T14:23:18;98645.70;;;13.13;45.06
75513;BME280;64090;49.770;18.760;2023-05-08T14:26:50;98650.23;;;12.36;44.81
75513;BME280;64090;49.770;18.760;2023-05-08T14:30:15;98643.10;;;12.19;45.65
75513;BME280;64090;49.770;18.760;2023-05-08T14:33:43;98652.93;;;12.27;44.82
75513;BME280;64090;49.770;18.760;2023-05-08T14:37:07;98647.36;;;12.08;45.50
75513;BME280;64090;49.770;18.760;2023-05-08T14:40:33;98643.07;;;12.14;46.19
75513;BME280;64090;49.770;18.760;2023-05-08T14:44:01;98652.02;;;12.30;45.03
75513;BME280;64090;49.770;18.760;2023-05-08T14:47:23;98652.19;;;12.43;45.06
75513;BME280;64090;49.770;18.760;2023-05-08T14:50:51;98651.89;;;12.58;45.12
75513;BME280;64090;49.770;18.760;2023-05-08T14:54:38;98650.63;;;13.04;44.27
75513;BME280;64090;49.770;18.760;2023-05-08T14:58:21;98640.17;;;13.19;44.21
75513;BME280;64090;49.770;18.760;2023-05-08T15:02:03;98643.05;;;12.72;44.60
75513;BME280;64090;49.770;18.760;2023-05-08T15:05:27;98650.27;;;12.81;45.25
75513;BME280;64090;49.770;18.760;2023-05-08T15:08:52;98650.97;;;12.85;44.13
75513;BME280;64090;49.770;18.760;2023-05-08T15:12:37;98651.57;;;12.73;43.71
75513;BME280;64090;49.770;18.760;2023-05-08T15:16:28;98652.16;;;12.57;44.47
75513;BME280;64090;49.770;18.760;2023-05-08T15:19:51;98650.35;;;12.71;44.45
75513;BME280;64090;49.770;18.760;2023-05-08T15:23:17;98656.30;;;12.75;44.69
75513;BME280;64090;49.770;18.760;2023-05-08T15:27:05;98644.27;;;12.44;45.91
75513;BME280;64090;49.770;18.760;2023-05-08T15:30:45;98653.41;;;12.06;45.87
75513;BME280;64090;49.770;18.760;2023-05-08T15:34:47;98653.05;;;11.75;46.57
75513;BME280;64090;49.770;18.760;2023-05-08T15:38:14;98655.02;;;11.79;46.90
75513;BME280;64090;49.770;18.760;2023-05-08T15:41:56;98653.44;;;11.72;47.27
75513;BME280;64090;49.770;18.760;2023-05-08T15:45:27;98655.15;;;11.87;47.76
75513;BME280;64090;49.770;18.760;2023-05-08T15:48:52;98651.67;;;11.99;46.64
75513;BME280;64090;49.770;18.760;2023-05-08T15:52:24;98651.27;;;11.76;47.27
75513;BME280;64090;49.770;18.760;2023-05-08T15:55:57;98646.71;;;11.45;47.63
75513;BME280;64090;49.770;18.760;2023-05-08T15:59:54;98655.23;;;11.22;48.75
75513;BME280;64090;49.770;18.760;2023-05-08T16:03:19;98656.02;;;11.17;47.63
75513;BME280;64090;49.770;18.760;2023-05-08T16:07:03;98652.27;;;10.97;48.40
75513;BME280;64090;49.770;18.760;2023-05-08T16:10:44;98644.82;;;11.22;47.46
75513;BME280;64090;49.770;18.760;2023-05-08T16:14:39;98644.56;;;11.21;47.81
75513;BME280;64090;49.770;18.760;2023-05-08T16:18:44;98641.52;;;11.44;47.24
75513;BME280;64090;49.770;18.760;2023-05-08T16:22:55;98644.42;;;11.37;47.74
75513;BME280;64090;49.770;18.760;2023-05-08T16:26:37;98639.45;;;11.28;48.62
75513;BME280;64090;49.770;18.760;2023-05-08T16:29:59;98640.85;;;11.22;49.27
75513;BME280;64090;49.770;18.760;2023-05-08T16:33:41;98642.68;;;10.82;49.82
75513;BME280;64090;49.770;18.760;2023-05-08T16:41:32;98639.46;;;10.18;49.03
75513;BME280;64090;49.770;18.760;2023-05-08T16:45:44;98639.20;;;10.20;48.61
75513;BME280;64090;49.770;18.760;2023-05-08T16:49:35;98636.83;;;10.27;48.03
75513;BME280;64090;49.770;18.760;2023-05-08T16:57:33;98636.79;;;10.65;47.60
75513;BME280;64090;49.770;18.760;2023-05-08T17:01:47;98630.23;;;11.64;46.07
75513;BME280;64090;49.770;18.760;2023-05-08T17:05:47;98635.23;;;12.34;44.94
75513;BME280;64090;49.770;18.760;2023-05-08T17:09:38;98629.56;;;12.45;44.21
75513;BME280;64090;49.770;18.760;2023-05-08T17:13:14;98625.73;;;12.73;44.06
75513;BME280;64090;49.770;18.760;2023-05-08T17:16:47;98625.23;;;12.66;43.64
75513;BME280;64090;49.770;18.760;2023-05-08T17:20:13;98635.73;;;11.85;44.66
75513;BME280;64090;49.770;18.760;2023-05-08T17:24:09;98628.88;;;11.20;45.76
75513;BME280;64090;49.770;18.760;2023-05-08T17:27:40;98625.77;;;11.53;45.99
75513;BME280;64090;49.770;18.760;2023-05-08T17:31:27;98619.28;;;11.78;44.96
75513;BME280;64090;49.770;18.760;2023-05-08T17:38:51;98617.30;;;11.84;44.80
75513;BME280;64090;49.770;18.760;2023-05-08T17:42:00;98620.64;;;11.07;46.04
75513;BME280;64090;49.770;18.760;2023-05-08T18:15:18;98635.70;;;7.95;55.07
75513;BME280;64090;49.770;18.760;2023-05-08T19:08:40;98668.48;;;6.88;59.46
75513;BME280;64090;49.770;18.760;2023-05-08T23:12:09;98551.98;;;4.35;71.15
